Time;durP1;ratioP1;P1;durP2;ratioP2;P2;SDS_P1;SDS_P2;PMS_P1;PMS_P2;Temp;Humidity;BMP_temperature;BMP_pressure;BME280_temperature;BME280_humidity;BME280_pressure;Samples;Min_cycle;Max_cycle;Signal;HPM_P1;HPM_P2
2021/10/22 00:01:55;;;;;;;5.43;1.10;;;;;;;10.97;71.59;96056.69;5111218;28;20055;-72
2021/10/22 00:04:22;;;;;;;4.55;1.08;;;;;;;10.99;71.98;96059.88;5110520;27;20055;-72
2021/10/22 00:06:48;;;;;;;5.65;1.17;;;;;;;10.97;72.76;96073.03;5110398;27;20043;-72
2021/10/22 00:09:15;;;;;;;6.20;1.40;;;;;;;10.97;72.98;96078.50;5109335;27;20047;-71
2021/10/22 00:11:43;;;;;;;4.97;1.00;;;;;;;10.96;72.72;96080.41;5111412;28;20485;-72
2021/10/22 00:14:10;;;;;;;5.40;1.23;;;;;;;10.91;72.97;96085.22;5110525;28;20067;-72
2021/10/22 00:16:36;;;;;;;7.03;1.20;;;;;;;10.88;73.38;96092.13;5111507;27;20580;-72
2021/10/22 00:19:05;;;;;;;3.08;1.10;;;;;;;10.82;73.63;96092.66;5110700;27;20486;-71
2021/10/22 00:21:31;;;;;;;4.97;1.05;;;;;;;10.82;74.39;96098.09;5111203;28;20051;-72
2021/10/22 00:23:58;;;;;;;6.47;1.08;;;;;;;10.83;73.26;96108.66;5110459;28;20130;-72
2021/10/22 00:26:25;;;;;;;4.97;1.33;;;;;;;10.80;74.17;96108.50;5107037;27;20044;-72
2021/10/22 00:28:51;;;;;;;4.35;1.17;;;;;;;10.82;73.84;96111.72;5109652;28;20048;-72
2021/10/22 00:31:18;;;;;;;7.00;1.27;;;;;;;10.80;74.43;96105.78;5109604;27;20510;-72
2021/10/22 00:33:45;;;;;;;2.78;0.90;;;;;;;10.74;74.56;96109.81;5109692;28;20048;-72
2021/10/22 00:36:13;;;;;;;7.45;1.27;;;;;;;10.72;74.86;96104.69;5109094;28;20423;-72
2021/10/22 00:38:40;;;;;;;3.40;1.13;;;;;;;10.72;74.90;96099.25;5110270;28;20055;-72
2021/10/22 00:41:06;;;;;;;4.40;1.08;;;;;;;10.65;74.77;96105.19;5108579;28;20051;-71
2021/10/22 00:43:33;;;;;;;8.45;1.55;;;;;;;10.53;75.08;96106.97;5110352;28;20503;-72
2021/10/22 00:46:00;;;;;;;5.00;1.20;;;;;;;10.45;75.75;96105.88;5108865;28;20054;-72
2021/10/22 00:48:27;;;;;;;5.40;1.40;;;;;;;10.43;76.10;96113.53;5110451;28;20169;-71
2021/10/22 00:50:56;;;;;;;9.70;1.60;;;;;;;10.45;76.25;96112.13;5109799;28;20055;-72
2021/10/22 00:53:24;;;;;;;2.75;1.10;;;;;;;10.42;76.55;96117.41;5109534;27;20125;-72
2021/10/22 00:55:51;;;;;;;5.85;1.30;;;;;;;10.41;76.00;96118.53;5109819;28;20506;-71
2021/10/22 00:58:19;;;;;;;3.38;1.20;;;;;;;10.38;75.98;96113.72;5109532;27;20059;-72
2021/10/22 01:00:45;;;;;;;7.38;1.40;;;;;;;10.36;75.82;96115.97;5110379;27;20043;-72
2021/10/22 01:03:12;;;;;;;7.05;1.52;;;;;;;10.33;76.33;96111.94;5109121;27;20058;-71
2021/10/22 01:05:39;;;;;;;5.05;1.70;;;;;;;10.29;76.35;96119.19;5110255;27;20092;-72
2021/10/22 01:08:09;;;;;;;3.55;1.40;;;;;;;10.23;77.13;96108.72;5109232;27;20047;-71
2021/10/22 01:10:38;;;;;;;6.60;1.48;;;;;;;10.17;77.75;96108.09;5110060;27;20052;-72
2021/10/22 01:13:05;;;;;;;7.15;1.33;;;;;;;10.14;78.84;96106.84;5109054;27;20140;-72
2021/10/22 01:15:32;;;;;;;6.75;1.30;;;;;;;10.09;79.17;96104.28;5109950;27;20052;-72
2021/10/22 01:18:00;;;;;;;5.00;1.55;;;;;;;10.01;79.79;96106.97;5109856;27;20044;-71
2021/10/22 01:20:27;;;;;;;5.70;1.33;;;;;;;10.00;80.47;96117.06;5109001;27;20043;-72
2021/10/22 01:22:56;;;;;;;6.55;1.83;;;;;;;9.97;80.79;96112.28;5109924;27;20076;-72
2021/10/22 01:25:25;;;;;;;4.07;1.40;;;;;;;9.88;81.60;96120.44;5109245;27;20050;-72
2021/10/22 01:27:53;;;;;;;7.03;1.50;;;;;;;9.74;82.33;96118.97;5111410;27;20040;-74
2021/10/22 01:30:22;;;;;;;7.05;1.70;;;;;;;9.61;83.57;96124.25;5108038;28;20052;-74
2021/10/22 01:32:50;;;;;;;5.93;1.70;;;;;;;9.54;84.49;96121.16;5109339;28;20112;-72
2021/10/22 01:35:16;;;;;;;6.03;1.67;;;;;;;9.51;84.91;96121.81;5107640;28;20156;-72
2021/10/22 01:37:43;;;;;;;4.60;1.83;;;;;;;9.50;85.32;96128.38;5109002;28;20048;-72
2021/10/22 01:40:12;;;;;;;4.75;1.60;;;;;;;9.53;85.50;96133.16;5107773;28;20495;-72
2021/10/22 01:42:38;;;;;;;5.78;1.50;;;;;;;9.52;84.98;96134.28;5108409;28;20048;-72
2021/10/22 01:45:06;;;;;;;9.40;2.30;;;;;;;9.49;85.49;96134.91;5107986;28;20206;-71
2021/10/22 01:47:32;;;;;;;6.53;1.83;;;;;;;9.33;85.79;96126.38;5107990;27;20055;-72
2021/10/22 01:49:58;;;;;;;3.83;1.90;;;;;;;9.37;86.37;96137.44;5108985;28;20047;-72
2021/10/22 01:52:25;;;;;;;4.70;1.50;;;;;;;9.34;86.45;96127.19;5107253;28;20524;-72
2021/10/22 01:54:52;;;;;;;4.00;1.65;;;;;;;9.31;86.66;96134.06;5108688;28;20709;-71
2021/10/22 01:57:19;;;;;;;4.35;1.67;;;;;;;9.27;86.97;96133.09;5108353;27;20058;-72
2021/10/22 01:59:46;;;;;;;3.25;1.30;;;;;;;9.32;86.65;96140.31;5108447;27;20052;-72
2021/10/22 02:02:13;;;;;;;5.45;1.63;;;;;;;9.25;86.95;96139.97;5107468;28;20140;-73
2021/10/22 02:04:40;;;;;;;6.25;1.58;;;;;;;9.21;86.98;96141.69;5108951;28;20048;-72
2021/10/22 02:07:06;;;;;;;5.65;2.10;;;;;;;9.15;87.50;96141.84;5108145;28;20043;-74
2021/10/22 02:09:33;;;;;;;8.05;2.17;;;;;;;9.12;87.49;96142.47;5108363;28;20056;-74
2021/10/22 02:11:59;;;;;;;5.55;1.98;;;;;;;9.14;87.69;96140.25;5108816;28;20138;-74
2021/10/22 02:14:28;;;;;;;4.97;2.15;;;;;;;9.13;87.61;96159.56;5108034;28;20052;-74
2021/10/22 02:16:54;;;;;;;7.15;2.00;;;;;;;9.09;87.20;96151.25;5109331;28;20461;-72
2021/10/22 02:19:21;;;;;;;7.57;2.08;;;;;;;9.11;87.86;96149.00;5107970;27;20044;-72
2021/10/22 02:21:47;;;;;;;5.28;2.38;;;;;;;9.12;87.63;96157.97;5108970;28;20047;-72
2021/10/22 02:24:14;;;;;;;6.13;2.10;;;;;;;9.12;88.29;96157.97;5108011;28;20040;-72
2021/10/22 02:26:40;;;;;;;5.25;2.40;;;;;;;9.07;88.43;96150.75;5109309;27;20051;-72
2021/10/22 02:29:07;;;;;;;4.43;2.25;;;;;;;9.08;88.41;96151.53;5108207;28;20055;-72
2021/10/22 02:31:34;;;;;;;6.47;2.63;;;;;;;9.08;88.82;96152.38;5107191;28;20047;-73
2021/10/22 02:34:01;;;;;;;6.20;2.45;;;;;;;9.09;88.93;96159.41;5109054;28;20051;-72
2021/10/22 02:36:27;;;;;;;6.63;2.70;;;;;;;9.09;89.20;96153.97;5107913;28;20039;-72
2021/10/22 02:38:54;;;;;;;7.07;3.00;;;;;;;9.11;89.26;96157.16;5108763;28;20055;-72
2021/10/22 02:41:20;;;;;;;9.23;3.08;;;;;;;9.09;89.06;96159.41;5107131;28;20100;-72
2021/10/22 02:43:47;;;;;;;8.10;3.30;;;;;;;9.12;89.02;96168.81;5108894;28;20054;-72
2021/10/22 02:46:14;;;;;;;4.90;2.88;;;;;;;9.15;89.26;96163.56;5107849;28;20415;-72
2021/10/22 02:48:42;;;;;;;8.27;3.38;;;;;;;9.23;89.22;96174.78;5108771;28;20043;-73
2021/10/22 02:51:08;;;;;;;7.43;3.70;;;;;;;9.24;89.15;96176.38;5107604;28;20056;-72
2021/10/22 02:53:35;;;;;;;3.80;2.40;;;;;;;9.17;88.54;96176.84;5108372;28;20051;-72
2021/10/22 02:56:01;;;;;;;3.47;1.85;;;;;;;9.02;88.06;96172.59;5107916;28;20464;-70
2021/10/22 02:58:28;;;;;;;2.70;1.63;;;;;;;8.98;87.55;96185.22;5108976;27;20819;-72
2021/10/22 03:00:54;;;;;;;2.03;1.10;;;;;;;8.95;88.00;96182.31;5108298;27;20048;-72
2021/10/22 03:03:21;;;;;;;3.03;1.23;;;;;;;8.82;87.44;96175.84;5107142;27;20051;-72
2021/10/22 03:05:49;;;;;;;3.25;1.55;;;;;;;8.80;87.83;96187.03;5108634;27;20608;-72
2021/10/22 03:08:16;;;;;;;2.63;1.23;;;;;;;8.80;88.36;96187.03;5106719;27;20051;-72
2021/10/22 03:10:42;;;;;;;4.10;1.10;;;;;;;8.85;88.14;96195.03;5108751;27;20055;-72
2021/10/22 03:13:09;;;;;;;3.38;1.10;;;;;;;8.88;87.61;96196.34;5107497;27;20044;-72
2021/10/22 03:15:36;;;;;;;4.15;1.00;;;;;;;8.85;87.35;96192.34;5107996;27;20059;-72
2021/10/22 03:18:02;;;;;;;2.63;1.00;;;;;;;8.81;87.28;96191.34;5107402;27;20070;-72
2021/10/22 03:20:29;;;;;;;2.00;0.95;;;;;;;8.82;87.63;96197.56;5107187;27;20055;-72
2021/10/22 03:22:56;;;;;;;2.60;1.05;;;;;;;8.86;87.57;96202.06;5107814;27;20043;-72
2021/10/22 03:25:23;;;;;;;2.25;1.00;;;;;;;8.84;87.45;96211.66;5106455;27;20073;-74
2021/10/22 03:27:49;;;;;;;2.10;0.88;;;;;;;8.76;87.43;96204.25;5109225;27;20052;-71
2021/10/22 03:30:16;;;;;;;3.63;0.90;;;;;;;8.76;87.57;96215.09;5107772;27;20047;-71
2021/10/22 03:32:42;;;;;;;2.03;1.00;;;;;;;8.75;87.45;96208.88;5108209;27;20051;-72
2021/10/22 03:35:10;;;;;;;3.92;1.00;;;;;;;8.70;86.89;96202.78;5106744;27;20036;-72
2021/10/22 03:37:36;;;;;;;12.70;1.95;;;;;;;8.71;87.20;96201.66;5108031;27;20482;-72
2021/10/22 03:40:05;;;;;;;5.05;1.25;;;;;;;8.65;85.68;96208.31;5107025;27;20048;-72
2021/10/22 03:42:31;;;;;;;3.45;1.17;;;;;;;8.59;84.20;96200.31;5107755;27;20058;-72
2021/10/22 03:44:58;;;;;;;2.55;1.33;;;;;;;8.59;83.93;96205.72;5110489;27;20055;-72
2021/10/22 03:47:25;;;;;;;4.95;1.20;;;;;;;8.56;83.36;96213.69;5110696;27;20051;-72
2021/10/22 03:49:51;;;;;;;4.43;0.93;;;;;;;8.59;83.42;96216.59;5111833;27;20051;-72
2021/10/22 03:52:18;;;;;;;1.48;0.90;;;;;;;8.58;82.83;96228.56;5110634;27;20055;-72
2021/10/22 03:54:44;;;;;;;2.20;0.90;;;;;;;8.57;83.26;96224.25;5112022;27;20503;-72
2021/10/22 03:57:12;;;;;;;1.85;1.10;;;;;;;8.56;83.38;96228.09;5111776;27;20043;-72
2021/10/22 03:59:38;;;;;;;2.85;1.08;;;;;;;8.60;83.57;96231.75;5111788;27;20048;-72
2021/10/22 04:02:05;;;;;;;2.90;1.23;;;;;;;8.59;83.09;96224.72;5110957;27;20055;-72
2021/10/22 04:04:31;;;;;;;6.47;1.60;;;;;;;8.58;83.01;96225.84;5111545;27;20071;-72
2021/10/22 04:07:00;;;;;;;3.45;1.50;;;;;;;8.56;82.94;96228.09;5111960;27;20058;-73
2021/10/22 04:09:28;;;;;;;3.08;1.40;;;;;;;8.56;83.33;96232.69;5111290;27;20071;-73
2021/10/22 04:11:57;;;;;;;2.42;1.60;;;;;;;8.53;83.65;96228.69;5111397;27;20039;-72
2021/10/22 04:14:25;;;;;;;2.47;1.70;;;;;;;8.55;83.63;96234.59;5109910;27;20051;-73
2021/10/22 04:16:55;;;;;;;3.40;1.50;;;;;;;8.52;83.66;96245.28;5111775;27;20157;-72
2021/10/22 04:19:22;;;;;;;3.88;1.50;;;;;;;8.44;83.81;96244.09;5110262;27;20051;-72
2021/10/22 04:21:49;;;;;;;3.17;1.85;;;;;;;8.43;84.13;96237.06;5111666;27;20047;-73
2021/10/22 04:24:18;;;;;;;3.05;2.00;;;;;;;8.46;84.26;96239.19;5110212;27;20101;-72
2021/10/22 04:26:44;;;;;;;4.20;2.25;;;;;;;8.47;84.23;96240.78;5109888;27;20066;-72
2021/10/22 04:29:11;;;;;;;5.03;2.20;;;;;;;8.47;83.75;96232.63;5110338;28;20044;-71
2021/10/22 04:31:39;;;;;;;5.20;2.63;;;;;;;8.45;83.37;96240.25;5110087;27;20055;-72
2021/10/22 04:34:05;;;;;;;3.83;2.50;;;;;;;8.38;83.38;96236.38;5110741;27;20051;-72
2021/10/22 04:36:32;;;;;;;6.35;2.70;;;;;;;8.33;83.10;96242.69;5110112;28;20059;-72
2021/10/22 04:41:43;;;;;;;5.60;2.53;;;;;;;8.22;83.14;96241.31;5110240;28;20115;-72
2021/10/22 04:44:09;;;;;;;6.32;2.70;;;;;;;8.14;82.57;96237.41;5110058;27;20056;-72
2021/10/22 04:46:36;;;;;;;5.82;2.63;;;;;;;8.06;82.77;96238.94;5110248;27;20074;-72
2021/10/22 04:49:04;;;;;;;7.72;2.92;;;;;;;8.02;82.60;96245.28;5110123;28;20040;-72
2021/10/22 04:51:30;;;;;;;6.93;2.80;;;;;;;7.98;83.29;96236.94;5110132;28;20409;-72
2021/10/22 04:53:57;;;;;;;7.03;2.55;;;;;;;7.96;83.26;96238.34;5110062;28;20079;-72
2021/10/22 04:56:23;;;;;;;7.07;2.55;;;;;;;7.93;83.21;96245.16;5109966;28;20138;-72
2021/10/22 04:58:50;;;;;;;11.00;2.33;;;;;;;7.87;82.96;96248.31;5110528;27;20055;-72
2021/10/22 05:01:16;;;;;;;4.53;2.28;;;;;;;7.84;82.73;96244.31;5110040;28;20444;-76
2021/10/22 05:03:43;;;;;;;7.30;1.95;;;;;;;7.85;82.03;96252.13;5109055;28;20788;-75
2021/10/22 05:06:11;;;;;;;5.38;1.90;;;;;;;7.82;82.02;96251.91;5109349;27;20047;-74
2021/10/22 05:08:38;;;;;;;8.52;2.50;;;;;;;7.72;81.59;96246.69;5109221;28;20077;-76
2021/10/22 05:11:05;;;;;;;7.97;2.30;;;;;;;7.77;82.38;96254.72;5109629;27;20415;-74
2021/10/22 05:13:31;;;;;;;9.27;2.42;;;;;;;7.79;82.59;96247.91;5109667;28;20054;-75
2021/10/22 05:15:58;;;;;;;7.65;2.35;;;;;;;7.81;82.37;96255.75;5109463;28;20055;-76
2021/10/22 05:18:25;;;;;;;6.75;2.30;;;;;;;7.83;82.72;96264.38;5108872;28;20047;-75
2021/10/22 05:20:51;;;;;;;8.00;2.55;;;;;;;7.83;82.60;96265.19;5109082;28;20071;-76
2021/10/22 05:23:19;;;;;;;7.25;2.30;;;;;;;7.81;82.86;96267.38;5109366;27;20056;-76
2021/10/22 05:25:45;;;;;;;8.27;2.58;;;;;;;7.79;83.28;96258.75;5108453;27;20709;-76
2021/10/22 05:28:12;;;;;;;5.43;2.60;;;;;;;7.82;83.42;96268.19;5110028;27;20410;-76
2021/10/22 05:30:39;;;;;;;5.93;2.85;;;;;;;7.85;83.14;96259.47;5108765;28;20056;-75
2021/10/22 05:33:06;;;;;;;6.53;3.15;;;;;;;7.81;83.19;96261.16;5109144;27;20506;-76
2021/10/22 05:35:32;;;;;;;10.90;3.17;;;;;;;7.85;83.36;96264.88;5108627;28;20066;-76
2021/10/22 05:37:59;;;;;;;9.38;3.30;;;;;;;7.82;83.55;96262.75;5109283;28;20525;-76
2021/10/22 05:40:26;;;;;;;11.45;2.65;;;;;;;7.81;83.37;96269.28;5108141;28;20641;-77
2021/10/22 05:42:53;;;;;;;9.30;2.72;;;;;;;7.85;83.84;96267.59;5108707;28;20078;-76
2021/10/22 05:45:19;;;;;;;10.48;2.70;;;;;;;7.84;83.80;96266.78;5108396;28;20047;-75
2021/10/22 05:47:46;;;;;;;8.60;2.70;;;;;;;7.79;83.05;96268.81;5108428;28;20498;-76
2021/10/22 05:50:12;;;;;;;8.30;3.20;;;;;;;7.79;82.87;96274.22;5108660;27;20043;-75
2021/10/22 05:52:39;;;;;;;7.30;2.97;;;;;;;7.80;82.98;96282.03;5108332;27;20510;-76
2021/10/22 05:55:06;;;;;;;10.13;3.53;;;;;;;7.85;82.63;96278.44;5108807;28;20051;-76
2021/10/22 05:57:34;;;;;;;6.20;2.95;;;;;;;7.87;82.34;96278.94;5109020;27;20047;-76
2021/10/22 06:00:01;;;;;;;7.40;2.60;;;;;;;7.89;82.21;96281.34;5108598;28;20577;-77
2021/10/22 06:02:27;;;;;;;11.23;3.25;;;;;;;7.86;82.52;96271.91;5108431;28;20070;-76
2021/10/22 06:04:54;;;;;;;6.70;2.45;;;;;;;7.85;82.08;96275.72;5108689;28;20063;-75
2021/10/22 06:07:20;;;;;;;6.63;2.85;;;;;;;7.85;81.94;96284.66;5107147;28;20051;-76
2021/10/22 06:09:47;;;;;;;9.07;2.53;;;;;;;7.82;82.00;96284.44;5108065;28;20044;-77
2021/10/22 06:12:14;;;;;;;12.00;2.72;;;;;;;7.77;82.19;96281.84;5108741;28;20050;-76
2021/10/22 06:14:42;;;;;;;6.72;2.80;;;;;;;7.82;82.13;96287.97;5107979;28;20051;-76
2021/10/22 06:17:08;;;;;;;9.35;2.50;;;;;;;7.86;81.51;96296.31;5108600;28;20054;-76
2021/10/22 06:19:39;;;;;;;7.97;2.38;;;;;;;7.88;81.47;96304.94;5107585;28;20472;-76
2021/10/22 06:22:11;;;;;;;11.07;2.55;;;;;;;7.93;81.23;96306.72;5108439;28;20054;-76
2021/10/22 06:24:38;;;;;;;5.90;2.22;;;;;;;7.92;80.95;96314.06;5107655;28;20130;-76
2021/10/22 06:27:05;;;;;;;10.35;2.38;;;;;;;7.86;80.24;96304.44;5107262;28;20048;-75
2021/10/22 06:29:33;;;;;;;11.00;2.72;;;;;;;7.83;80.67;96307.75;5108146;28;20052;-76
2021/10/22 06:32:01;;;;;;;13.77;3.08;;;;;;;7.83;81.28;96313.19;5107640;28;20047;-76
2021/10/22 06:34:28;;;;;;;11.07;2.72;;;;;;;7.85;81.71;96316.38;5107832;28;20047;-75
2021/10/22 06:36:56;;;;;;;7.47;2.50;;;;;;;7.89;80.92;96319.31;5107734;28;20051;-76
2021/10/22 06:39:23;;;;;;;8.90;2.55;;;;;;;7.85;81.13;96321.81;5108431;28;20101;-77
2021/10/22 06:41:50;;;;;;;8.15;2.67;;;;;;;7.84;81.45;96325.63;5107336;28;20047;-76
2021/10/22 06:44:18;;;;;;;5.15;2.40;;;;;;;7.81;82.10;96323.50;5107903;28;20043;-76
2021/10/22 06:46:45;;;;;;;10.07;2.63;;;;;;;7.78;82.12;96329.56;5107484;28;20120;-76
2021/10/22 06:49:13;;;;;;;6.93;2.45;;;;;;;7.71;81.83;96329.13;5107548;28;20047;-76
2021/10/22 06:51:40;;;;;;;8.15;2.67;;;;;;;7.70;82.68;96332.94;5107629;28;20078;-75
2021/10/22 06:54:07;;;;;;;6.95;2.60;;;;;;;7.72;82.79;96333.44;5107034;28;20048;-75
2021/10/22 06:56:34;;;;;;;7.78;2.17;;;;;;;7.72;82.14;96338.84;5108963;28;20061;-75
2021/10/22 06:59:00;;;;;;;7.60;2.40;;;;;;;7.74;82.41;96342.09;5107626;28;20052;-76
2021/10/22 07:01:27;;;;;;;12.48;2.30;;;;;;;7.73;82.99;96335.06;5107884;28;20058;-74
2021/10/22 07:03:54;;;;;;;5.95;2.55;;;;;;;7.79;83.21;96350.13;5107424;28;20063;-77
2021/10/22 07:09:06;;;;;;;11.20;2.80;;;;;;;7.85;83.61;96357.84;5107340;28;20173;-75
2021/10/22 07:11:32;;;;;;;12.00;3.45;;;;;;;7.89;83.31;96355.34;5107703;28;20047;-76
2021/10/22 07:14:00;;;;;;;9.55;3.28;;;;;;;7.95;83.26;96359.56;5107986;28;20047;-77
2021/10/22 07:16:29;;;;;;;8.57;2.75;;;;;;;8.04;83.27;96365.91;5106923;28;20047;-76
2021/10/22 07:18:56;;;;;;;13.50;2.97;;;;;;;8.16;82.39;96364.59;5111490;28;20051;-76
2021/10/22 07:21:23;;;;;;;9.52;2.13;;;;;;;8.20;82.17;96363.69;5110611;28;20570;-75
2021/10/22 07:23:51;;;;;;;12.23;3.25;;;;;;;8.24;82.64;96363.88;5112080;28;20047;-76
2021/10/22 07:26:19;;;;;;;11.15;2.30;;;;;;;8.32;82.39;96363.97;5110444;28;20043;-76
2021/10/22 07:28:46;;;;;;;10.95;2.63;;;;;;;8.33;81.48;96373.72;5112712;27;20056;-76
2021/10/22 07:31:13;;;;;;;9.32;2.38;;;;;;;8.35;80.63;96374.25;5110803;27;20048;-76
2021/10/22 07:33:41;;;;;;;8.55;2.20;;;;;;;8.35;80.02;96381.53;5111558;28;20126;-76
2021/10/22 07:36:11;;;;;;;7.55;2.40;;;;;;;8.36;79.57;96394.88;5111067;27;20108;-77
2021/10/22 07:38:41;;;;;;;9.23;2.15;;;;;;;8.37;79.63;96398.38;5111364;28;20127;-76
2021/10/22 07:41:07;;;;;;;9.75;2.63;;;;;;;8.35;79.70;96400.53;5111265;28;20421;-75
2021/10/22 07:43:36;;;;;;;14.52;2.70;;;;;;;8.27;79.42;96406.69;5110926;28;20078;-76
2021/10/22 07:46:03;;;;;;;10.43;2.30;;;;;;;8.21;78.17;96410.63;5118039;27;20138;-76
2021/10/22 07:48:29;;;;;;;11.98;2.10;;;;;;;8.18;79.18;96406.56;5110701;27;20047;-77
2021/10/22 07:50:56;;;;;;;7.75;2.20;;;;;;;8.16;79.59;96403.38;5111554;27;20043;-76
2021/10/22 07:53:24;;;;;;;8.27;2.22;;;;;;;8.23;79.32;96409.19;5110564;28;20402;-77
2021/10/22 07:55:52;;;;;;;13.07;3.15;;;;;;;8.22;79.37;96423.88;5111116;28;20043;-76
2021/10/22 07:58:18;;;;;;;10.55;2.42;;;;;;;8.18;79.47;96425.56;5111546;27;20071;-76
2021/10/22 08:00:45;;;;;;;10.10;2.70;;;;;;;8.13;79.70;96431.09;5110930;27;20082;-76
2021/10/22 08:03:11;;;;;;;5.60;2.45;;;;;;;8.16;79.77;96435.91;5110796;28;20047;-76
2021/10/22 08:05:38;;;;;;;12.27;2.22;;;;;;;8.17;78.38;96442.94;5110075;27;20043;-75
2021/10/22 08:08:05;;;;;;;15.07;2.50;;;;;;;8.13;79.01;96447.34;5110825;27;20054;-76
2021/10/22 08:10:32;;;;;;;9.98;2.28;;;;;;;8.13;78.64;96451.97;5111235;28;20067;-77
2021/10/22 08:13:01;;;;;;;12.63;2.67;;;;;;;8.09;79.95;96451.78;5111044;28;20055;-76
2021/10/22 08:15:27;;;;;;;7.18;2.58;;;;;;;8.04;80.14;96449.97;5110401;27;20062;-77
2021/10/22 08:17:55;;;;;;;14.10;2.88;;;;;;;8.01;80.05;96450.56;5110814;28;20050;-76
2021/10/22 08:20:24;;;;;;;13.20;2.75;;;;;;;8.05;80.52;96450.78;5110380;28;20055;-76
2021/10/22 08:22:50;;;;;;;11.60;2.65;;;;;;;8.10;80.55;96462.34;5110330;28;20048;-75
2021/10/22 08:25:21;;;;;;;7.68;2.70;;;;;;;8.09;80.61;96463.44;5110414;28;20426;-76
2021/10/22 08:27:49;;;;;;;12.20;2.78;;;;;;;8.11;79.37;96466.66;5110425;27;20514;-76
2021/10/22 08:30:22;;;;;;;9.95;2.45;;;;;;;8.05;79.41;96467.06;5109895;28;20043;-76
2021/10/22 08:32:50;;;;;;;9.63;2.72;;;;;;;7.99;80.53;96469.06;5109201;27;20052;-76
2021/10/22 08:35:18;;;;;;;10.40;2.80;;;;;;;8.04;79.42;96463.53;5110279;28;20052;-75
2021/10/22 08:37:44;;;;;;;8.25;3.28;;;;;;;8.05;81.04;96462.44;5109941;27;20058;-76
2021/10/22 08:40:12;;;;;;;7.25;2.10;;;;;;;8.06;81.24;96453.19;5110105;28;20051;-76
2021/10/22 08:42:39;;;;;;;9.07;2.40;;;;;;;8.14;79.80;96467.16;5110124;28;20498;-76
2021/10/22 08:45:07;;;;;;;11.13;2.60;;;;;;;8.17;80.18;96469.28;5109385;27;20519;-76
2021/10/22 08:47:36;;;;;;;11.50;2.75;;;;;;;8.15;78.35;96469.59;5110036;28;20051;-76
2021/10/22 08:50:06;;;;;;;8.52;2.80;;;;;;;8.09;78.58;96485.16;5108508;28;20139;-75
2021/10/22 08:52:33;;;;;;;10.27;2.60;;;;;;;8.10;78.90;96475.91;5110797;28;20063;-76
2021/10/22 08:55:00;;;;;;;10.18;2.47;;;;;;;8.12;79.58;96481.00;5109536;27;20059;-76
2021/10/22 08:57:27;;;;;;;9.98;2.55;;;;;;;8.16;78.88;96483.94;5110298;27;20066;-76
2021/10/22 08:59:57;;;;;;;6.65;2.20;;;;;;;8.11;77.87;96484.84;5109192;28;20059;-77
2021/10/22 09:02:26;;;;;;;9.07;2.00;;;;;;;8.00;78.18;96492.34;5109571;28;20055;-77
2021/10/22 09:04:56;;;;;;;11.05;2.50;;;;;;;8.07;75.80;96492.75;5109711;28;20134;-76
2021/10/22 09:07:39;;;;;;;13.50;2.10;;;;;;;8.09;73.74;96487.84;5109073;28;20689;-75
2021/10/22 09:10:09;;;;;;;11.43;1.70;;;;;;;8.00;72.30;96486.94;5109981;28;20055;-75
2021/10/22 09:12:44;;;;;;;14.45;2.15;;;;;;;8.00;72.77;96492.34;5108845;27;20048;-75
2021/10/22 09:15:12;;;;;;;14.07;1.95;;;;;;;8.08;74.34;96502.50;5109622;27;20058;-75
2021/10/22 09:17:40;;;;;;;14.18;2.42;;;;;;;8.12;76.73;96500.00;5109014;28;20749;-75
2021/10/22 09:20:12;;;;;;;9.60;2.72;;;;;;;8.18;76.77;96508.84;5109603;27;20048;-76
2021/10/22 09:22:39;;;;;;;9.88;2.10;;;;;;;8.27;74.91;96507.06;5109083;28;20097;-76
2021/10/22 09:25:09;;;;;;;16.98;2.17;;;;;;;8.37;75.80;96506.91;5108853;28;20039;-75
2021/10/22 09:27:42;;;;;;;12.80;1.98;;;;;;;8.44;77.06;96512.75;5110213;27;20132;-75
2021/10/22 09:30:12;;;;;;;14.65;2.60;;;;;;;8.54;77.07;96517.97;5108258;28;20063;-76
2021/10/22 09:32:51;;;;;;;10.23;2.20;;;;;;;8.64;74.55;96516.97;5109835;27;20052;-77
2021/10/22 09:35:34;;;;;;;7.57;2.13;;;;;;;8.68;73.98;96503.63;5107930;28;20039;-75
2021/10/22 09:38:11;;;;;;;9.13;1.88;;;;;;;8.76;75.30;96506.41;5109865;27;20525;-77
2021/10/22 09:40:39;;;;;;;11.60;1.90;;;;;;;8.83;75.39;96509.53;5108450;28;20044;-75
2021/10/22 09:43:14;;;;;;;12.27;2.08;;;;;;;8.78;74.34;96514.28;5108097;28;20517;-75
2021/10/22 09:45:40;;;;;;;14.27;2.30;;;;;;;8.80;75.55;96520.19;5109446;27;20047;-75
2021/10/22 09:48:22;;;;;;;13.77;2.70;;;;;;;8.94;76.36;96529.16;5108092;28;20054;-76
2021/10/22 09:50:50;;;;;;;10.52;2.30;;;;;;;8.97;73.50;96525.81;5108999;28;20135;-76
2021/10/22 09:53:23;;;;;;;14.85;2.50;;;;;;;8.98;71.23;96523.91;5108198;28;20077;-77
2021/10/22 09:56:01;;;;;;;8.48;2.30;;;;;;;8.94;73.34;96518.28;5109068;27;20062;-76
2021/10/22 09:58:27;;;;;;;11.48;2.10;;;;;;;8.99;71.14;96512.75;5109455;27;20044;-77
2021/10/22 10:01:06;;;;;;;10.15;2.13;;;;;;;9.09;73.24;96517.97;5108359;28;20055;-74
2021/10/22 10:03:36;;;;;;;9.77;2.50;;;;;;;9.13;72.24;96518.97;5108967;28;20047;-75
2021/10/22 10:06:07;;;;;;;14.07;2.40;;;;;;;9.20;71.82;96507.69;5108591;28;20047;-76
2021/10/22 10:08:34;;;;;;;12.30;2.05;;;;;;;9.26;72.74;96517.31;5108741;28;20142;-75
2021/10/22 10:11:00;;;;;;;11.85;2.30;;;;;;;9.42;73.23;96531.38;5108335;28;20269;-75
2021/10/22 10:13:29;;;;;;;11.93;2.17;;;;;;;9.43;72.02;96527.56;5108187;28;20486;-74
2021/10/22 10:15:57;;;;;;;10.80;2.50;;;;;;;9.52;69.39;96520.28;5108669;28;20067;-76
2021/10/22 10:18:25;;;;;;;11.60;2.20;;;;;;;9.65;71.09;96527.56;5107781;28;20056;-75
2021/10/22 10:20:53;;;;;;;7.18;2.20;;;;;;;9.77;69.38;96531.69;5108331;28;20053;-75
2021/10/22 10:23:22;;;;;;;8.48;2.40;;;;;;;9.77;70.76;96531.69;5107309;28;20445;-75
2021/10/22 10:25:49;;;;;;;11.85;2.53;;;;;;;9.87;70.24;96536.88;5109075;28;20821;-75
2021/10/22 10:28:15;;;;;;;8.98;2.40;;;;;;;9.98;70.29;96532.81;5107802;28;20039;-74
2021/10/22 10:30:43;;;;;;;11.35;2.60;;;;;;;10.08;67.69;96516.22;5108849;28;20135;-75
2021/10/22 10:33:29;;;;;;;8.60;2.17;;;;;;;10.10;65.79;96524.88;5106912;28;20047;-76
2021/10/22 10:35:56;;;;;;;7.95;2.13;;;;;;;9.99;64.91;96530.88;5107930;28;20047;-76
2021/10/22 10:38:42;;;;;;;10.38;2.35;;;;;;;9.87;67.12;96528.72;5107526;28;20048;-74
2021/10/22 10:41:19;;;;;;;12.27;2.45;;;;;;;9.83;67.41;96530.44;5107338;28;20048;-77
2021/10/22 10:43:46;;;;;;;10.40;2.35;;;;;;;9.76;66.32;96533.59;5108638;28;20051;-75
2021/10/22 10:46:32;;;;;;;8.32;2.38;;;;;;;9.77;67.06;96523.53;5107442;28;20043;-75
2021/10/22 10:48:58;;;;;;;6.15;2.15;;;;;;;9.71;65.98;96524.72;5108236;28;20055;-75
2021/10/22 10:51:36;;;;;;;10.60;3.28;;;;;;;9.98;66.96;96511.03;5107245;28;20494;-77
2021/10/22 10:54:05;;;;;;;5.65;1.90;;;;;;;10.19;68.23;96523.00;5106889;28;20051;-75
2021/10/22 10:56:34;;;;;;;11.93;2.55;;;;;;;10.41;64.54;96519.47;5108569;28;20055;-74
2021/10/22 10:59:01;;;;;;;7.93;2.20;;;;;;;10.49;62.31;96526.06;5087410;28;20060;-75
2021/10/22 11:01:30;;;;;;;7.70;2.22;;;;;;;10.45;63.45;96523.19;5087744;28;20449;-75
2021/10/22 11:03:58;;;;;;;6.85;2.10;;;;;;;10.43;61.35;96513.72;5087043;28;20113;-75
2021/10/22 11:06:39;;;;;;;14.00;1.70;;;;;;;10.51;60.41;96518.41;5087538;28;20423;-75
2021/10/22 11:09:07;;;;;;;8.32;2.45;;;;;;;10.67;63.93;96519.59;5086489;28;20129;-76
2021/10/22 11:11:40;;;;;;;9.60;2.10;;;;;;;10.72;60.42;96515.94;5087441;28;20052;-76
2021/10/22 11:14:13;;;;;;;9.32;2.58;;;;;;;10.80;58.95;96522.53;5087308;28;20431;-76
2021/10/22 11:16:45;;;;;;;6.90;1.92;;;;;;;10.78;58.46;96511.16;5087021;28;20683;-75
2021/10/22 11:19:13;;;;;;;8.73;1.73;;;;;;;10.69;58.27;96511.91;5087583;28;20139;-75
2021/10/22 11:21:43;;;;;;;9.52;1.30;;;;;;;10.69;59.11;96513.81;5086738;28;20139;-75
2021/10/22 11:24:15;;;;;;;7.22;1.73;;;;;;;10.62;57.48;96516.22;5087762;28;20669;-76
2021/10/22 11:26:41;;;;;;;6.90;2.00;;;;;;;10.49;57.83;96515.19;5089460;28;20060;-75
2021/10/22 11:29:15;;;;;;;7.70;1.50;;;;;;;10.39;58.48;96504.59;5107487;28;20112;-75
2021/10/22 11:31:44;;;;;;;8.30;1.52;;;;;;;10.42;59.21;96499.31;5107358;28;20525;-76
2021/10/22 11:34:14;;;;;;;12.52;3.72;;;;;;;10.58;60.54;96509.78;5106959;28;20807;-75
2021/10/22 11:36:41;;;;;;;9.38;1.60;;;;;;;10.78;59.33;96503.78;5107907;28;20048;-76
2021/10/22 11:39:21;;;;;;;6.88;1.48;;;;;;;11.00;59.39;96502.88;5106770;28;20410;-75
2021/10/22 11:42:14;;;;;;;5.90;1.75;;;;;;;11.17;54.29;96502.09;5108038;28;20134;-75
2021/10/22 11:44:46;;;;;;;8.40;1.55;;;;;;;11.18;55.20;96504.53;5104427;27;20096;-76
2021/10/22 11:47:13;;;;;;;6.60;2.00;;;;;;;11.28;54.32;96497.19;5107251;28;20432;-75
2021/10/22 11:49:41;;;;;;;5.50;1.77;;;;;;;11.18;53.78;96496.34;5107562;28;20055;-74